This is the latest recevied weather packets stored in our database for station/object KY4LEX. If no packets are shown the sender has not sent any weather packets the latest 10 day(s).
| Time | Temp. | Humidity | Pressure | Rain* | Wind** | Luminosity | Snow |
|---|---|---|---|---|---|---|---|
| 1777740292 | 14.44° C | 39% | 1022.9 hPa | 0 mm | - | 377 W/m² | - |
| 1777739989 | 14.44° C | 39% | 1023 hPa | 0 mm | - | 288 W/m² | - |
| 1777739685 | 14.44° C | 41% | 1023.1 hPa | 0 mm | - | 899 W/m² | - |
| 1777739383 | 14.44° C | 42% | 1022.9 hPa | 0 mm | - | 235 W/m² | - |
| 1777739079 | 13.89° C | 39% | 1023.1 hPa | 0 mm | - | 369 W/m² | - |
| 1777738777 | 13.89° C | 43% | 1022.9 hPa | 0 mm | - | 456 W/m² | - |
| 1777738472 | 15° C | 39% | 1023 hPa | 0 mm | - | 548 W/m² | - |
| 1777738171 | 14.44° C | 43% | 1023 hPa | 0 mm | - | 297 W/m² | - |
| 1777737868 | 14.44° C | 45% | 1023 hPa | 0 mm | - | 126 W/m² | - |
| 1777737567 | 15° C | 42% | 1023 hPa | 0 mm | - | 742 W/m² | - |
| 1777737266 | 14.44° C | 44% | 1023.2 hPa | 0 mm | - | 696 W/m² | - |
| 1777736961 | 14.44° C | 42% | 1022.9 hPa | 0 mm | - | 695 W/m² | - |
| 1777736061 | 13.89° C | 46% | 1023 hPa | 0 mm | - | 664 W/m² | - |
| 1777735757 | 13.33° C | 47% | 1023.2 hPa | 0 mm | - | 634 W/m² | - |
| 1777735455 | 12.78° C | 48% | 1023.3 hPa | 0 mm | - | 664 W/m² | - |
| 1777735153 | 12.78° C | 50% | 1023.1 hPa | 0 mm | - | 125 W/m² | - |
| 1777734849 | 12.78° C | 48% | 1023.3 hPa | 0 mm | - | 634 W/m² | - |
| 1777734546 | 12.22° C | 50% | 1023.3 hPa | 0 mm | - | 589 W/m² | - |
| 1777734243 | 12.78° C | 48% | 1023.3 hPa | 0 mm | - | 545 W/m² | - |
| 1777733939 | 11.67° C | 51% | 1023.2 hPa | 0 mm | - | 519 W/m² | - |
| 1777733635 | 11.11° C | 53% | 1023.2 hPa | 0 mm | - | 529 W/m² | - |
| 1777733332 | 12.22° C | 49% | 1023.2 hPa | 0 mm | - | 521 W/m² | - |
| 1777733029 | 11.11° C | 54% | 1023.1 hPa | 0 mm | - | 345 W/m² | - |
| 1777732725 | 10.56° C | 53% | 1023 hPa | 0 mm | - | 156 W/m² | - |
| 1777732422 | 11.11° C | 55% | 1023.2 hPa | 0 mm | - | 226 W/m² | - |
* Rain latest hour (hover to see other rain measurements)
** Current wind speed in m/s (hover to see current wind gust speed)